Time;durP1;ratioP1;P1;durP2;ratioP2;P2;SDS_P1;SDS_P2;PMS_P1;PMS_P2;Temp;Humidity;BMP_temperature;BMP_pressure;BME280_temperature;BME280_humidity;BME280_pressure;Samples;Min_cycle;Max_cycle;Signal;HPM_P1;HPM_P2
2024/01/25 00:00:55;;;;;;;35.60;4.83;;;7.10;99.90;;;;;;5019389;28;20372;-64
2024/01/25 00:03:22;;;;;;;20.30;3.80;;;7.00;99.90;;;;;;4992786;28;20208;-65
2024/01/25 00:05:51;;;;;;;29.53;4.70;;;6.10;99.90;;;;;;5010204;28;20759;-64
2024/01/25 00:08:17;;;;;;;17.43;3.73;;;7.00;99.90;;;;;;5020946;28;20198;-64
2024/01/25 00:10:44;;;;;;;26.03;4.40;;;6.60;99.90;;;;;;5020455;28;20229;-64
2024/01/25 00:13:11;;;;;;;21.10;3.47;;;7.10;99.90;;;;;;5009558;28;20586;-65
2024/01/25 00:15:38;;;;;;;19.07;3.97;;;7.00;99.90;;;;;;5020147;28;20284;-64
2024/01/25 00:18:05;;;;;;;25.10;5.17;;;6.90;99.90;;;;;;4977674;28;20232;-65
2024/01/25 00:20:33;;;;;;;21.30;3.77;;;;;;;;;;5006012;28;20544;-64
2024/01/25 00:23:01;;;;;;;28.93;4.87;;;7.00;99.90;;;;;;5014870;28;20217;-64
2024/01/25 00:25:28;;;;;;;21.70;3.37;;;7.10;99.90;;;;;;5020788;28;20702;-64
2024/01/25 00:27:54;;;;;;;23.77;4.83;;;7.10;99.90;;;;;;5013429;28;20312;-64
2024/01/25 00:30:21;;;;;;;26.40;4.07;;;7.10;99.90;;;;;;5006595;28;20235;-64
2024/01/25 00:32:49;;;;;;;19.43;3.37;;;7.00;99.90;;;;;;4984843;28;20209;-65
2024/01/25 00:35:17;;;;;;;15.87;3.73;;;7.00;99.90;;;;;;5018865;28;20281;-65
2024/01/25 00:37:44;;;;;;;18.43;4.20;;;7.10;99.90;;;;;;5006433;28;20205;-65
2024/01/25 00:40:14;;;;;;;18.63;3.80;;;7.00;99.90;;;;;;5019795;28;20210;-65
2024/01/25 00:42:44;;;;;;;18.17;3.30;;;7.00;99.90;;;;;;5014257;28;20202;-64
2024/01/25 00:45:12;;;;;;;22.47;3.97;;;7.00;99.90;;;;;;5006060;28;20284;-64
2024/01/25 00:47:40;;;;;;;21.43;3.40;;;7.00;99.90;;;;;;5014562;28;20262;-65
2024/01/25 00:50:08;;;;;;;21.87;4.23;;;7.00;99.90;;;;;;4996786;28;20256;-64
2024/01/25 00:52:36;;;;;;;22.20;4.53;;;7.00;99.90;;;;;;5010342;28;20704;-65
2024/01/25 00:55:03;;;;;;;29.90;4.63;;;7.10;99.90;;;;;;5015051;28;21075;-64
2024/01/25 00:57:32;;;;;;;13.20;3.20;;;6.90;99.90;;;;;;5011799;28;20208;-64
2024/01/25 01:00:00;;;;;;;17.23;3.93;;;6.30;99.90;;;;;;5019675;28;20193;-64
2024/01/25 01:02:30;;;;;;;27.80;4.33;;;6.90;99.90;;;;;;4998019;28;20210;-64
2024/01/25 01:04:58;;;;;;;18.50;3.57;;;7.00;99.90;;;;;;4982985;28;20308;-64
2024/01/25 01:07:26;;;;;;;23.00;4.00;;;6.90;99.90;;;;;;5009616;28;20205;-64
2024/01/25 01:09:53;;;;;;;30.77;5.17;;;6.80;99.90;;;;;;5019303;28;20228;-65
2024/01/25 01:12:20;;;;;;;18.77;4.33;;;6.80;99.90;;;;;;5018071;28;20193;-65
2024/01/25 01:14:48;;;;;;;18.40;3.43;;;6.80;99.90;;;;;;5022016;28;20284;-64
2024/01/25 01:17:15;;;;;;;24.50;4.17;;;;;;;;;;5010969;28;20296;-64
2024/01/25 01:19:42;;;;;;;30.60;4.50;;;6.80;99.90;;;;;;4979476;28;20233;-64
2024/01/25 01:22:09;;;;;;;21.30;3.77;;;6.80;99.90;;;;;;5009896;28;20225;-65
2024/01/25 01:24:36;;;;;;;30.33;4.73;;;6.80;99.90;;;;;;5008444;28;20693;-64
2024/01/25 01:27:03;;;;;;;22.53;4.07;;;6.70;99.90;;;;;;5016484;28;20685;-64
2024/01/25 01:29:30;;;;;;;23.70;4.40;;;6.70;99.90;;;;;;5018300;28;20234;-64
2024/01/25 01:31:58;;;;;;;23.90;4.10;;;6.70;99.90;;;;;;5007341;28;20210;-64
2024/01/25 01:34:25;;;;;;;36.40;4.90;;;6.70;99.90;;;;;;4991145;28;20210;-65
2024/01/25 01:36:52;;;;;;;19.60;3.70;;;6.70;99.90;;;;;;5018884;28;20754;-65
2024/01/25 01:39:19;;;;;;;16.90;3.63;;;6.70;99.90;;;;;;4995161;28;20214;-64
2024/01/25 01:41:48;;;;;;;25.57;4.33;;;6.70;99.90;;;;;;5023475;28;20212;-64
2024/01/25 01:44:15;;;;;;;23.47;3.70;;;6.90;99.90;;;;;;5022093;28;20602;-64
2024/01/25 01:46:43;;;;;;;21.83;4.23;;;6.70;99.90;;;;;;5014810;28;20194;-64
2024/01/25 01:49:13;;;;;;;29.30;4.50;;;6.60;99.90;;;;;;4997642;28;20197;-64
2024/01/25 01:51:42;;;;;;;19.17;4.43;;;6.60;99.90;;;;;;5024231;28;20197;-64
2024/01/25 01:54:10;;;;;;;20.10;4.43;;;6.60;99.90;;;;;;5007176;28;20296;-65
2024/01/25 01:56:39;;;;;;;30.67;4.93;;;6.60;99.90;;;;;;5025549;28;20280;-64
2024/01/25 01:59:10;;;;;;;23.20;3.93;;;6.60;99.90;;;;;;5023723;28;20661;-65
2024/01/25 02:01:37;;;;;;;23.03;3.50;;;6.60;99.90;;;;;;5026167;28;20232;-65
2024/01/25 02:04:05;;;;;;;27.03;4.33;;;6.40;99.90;;;;;;4998185;28;20468;-64
2024/01/25 02:06:33;;;;;;;25.47;4.13;;;6.50;99.90;;;;;;5013793;28;20574;-65
2024/01/25 02:09:01;;;;;;;20.50;4.00;;;;;;;;;;5021596;28;20199;-64
2024/01/25 02:11:28;;;;;;;27.77;4.57;;;6.50;99.90;;;;;;5015496;28;20234;-64
2024/01/25 02:13:54;;;;;;;23.03;4.50;;;6.50;99.90;;;;;;5024421;28;20202;-64
2024/01/25 02:16:21;;;;;;;27.47;4.37;;;6.50;99.90;;;;;;5019955;28;20194;-64
2024/01/25 02:18:49;;;;;;;31.77;4.10;;;6.40;99.90;;;;;;5013394;28;20259;-64
2024/01/25 02:21:16;;;;;;;22.97;3.93;;;6.50;99.90;;;;;;4989033;28;20702;-64
2024/01/25 02:23:44;;;;;;;21.20;4.13;;;6.30;99.90;;;;;;5024364;28;20576;-65
2024/01/25 02:26:11;;;;;;;18.93;3.67;;;6.50;99.90;;;;;;5008490;28;20201;-64
2024/01/25 02:28:38;;;;;;;26.93;3.90;;;6.50;99.90;;;;;;5023759;28;20205;-64
2024/01/25 02:31:05;;;;;;;23.07;4.57;;;6.40;99.90;;;;;;5006147;28;20230;-64
2024/01/25 02:33:32;;;;;;;30.33;4.27;;;6.40;99.90;;;;;;5021941;28;21047;-65
2024/01/25 02:35:59;;;;;;;19.57;4.00;;;;;;;;;;4978988;28;21377;-65
2024/01/25 02:38:26;;;;;;;31.33;4.40;;;6.40;99.90;;;;;;5023156;28;20308;-64
2024/01/25 02:40:54;;;;;;;26.07;4.83;;;6.30;99.90;;;;;;5011563;28;20205;-65
2024/01/25 02:43:22;;;;;;;24.83;4.80;;;6.30;99.90;;;;;;5023954;28;20194;-65
2024/01/25 02:45:49;;;;;;;40.27;5.20;;;6.30;99.90;;;;;;5023887;28;20256;-64
2024/01/25 02:48:15;;;;;;;16.93;3.43;;;6.50;99.90;;;;;;5021295;28;20201;-64
2024/01/25 02:50:42;;;;;;;15.13;3.53;;;6.30;99.90;;;;;;5013419;28;20229;-64
2024/01/25 02:53:09;;;;;;;21.87;3.87;;;6.20;99.90;;;;;;4986845;28;20206;-64
2024/01/25 02:55:36;;;;;;;26.17;4.33;;;6.30;99.90;;;;;;5010399;28;20205;-64
2024/01/25 02:58:05;;;;;;;17.03;3.23;;;6.40;99.90;;;;;;5021050;28;20201;-64
2024/01/25 03:00:31;;;;;;;22.67;3.93;;;6.20;99.90;;;;;;5023185;28;21452;-64
2024/01/25 03:02:58;;;;;;;23.20;3.70;;;6.20;99.90;;;;;;5024211;28;20198;-64
2024/01/25 03:05:25;;;;;;;30.30;4.93;;;6.30;99.90;;;;;;5017022;28;20205;-64
2024/01/25 03:07:52;;;;;;;26.47;3.47;;;6.20;99.90;;;;;;5001576;28;20198;-64
2024/01/25 03:10:19;;;;;;;24.90;3.97;;;6.30;99.90;;;;;;5010175;28;20231;-65
2024/01/25 03:12:46;;;;;;;23.30;3.73;;;;;;;;;;5021505;28;20209;-64
2024/01/25 03:15:14;;;;;;;27.57;4.60;;;5.10;99.90;;;;;;5021946;28;20860;-64
2024/01/25 03:17:41;;;;;;;25.97;4.00;;;6.20;99.90;;;;;;5024565;28;20221;-64
2024/01/25 03:20:09;;;;;;;18.53;3.60;;;6.20;99.90;;;;;;5023286;28;20202;-65
2024/01/25 03:22:36;;;;;;;19.50;4.13;;;5.70;99.90;;;;;;5013767;28;20204;-65
2024/01/25 03:25:03;;;;;;;22.77;3.97;;;7.60;99.90;;;;;;4988011;28;20696;-65
2024/01/25 03:27:30;;;;;;;19.43;4.13;;;6.20;99.90;;;;;;5013065;28;20569;-64
2024/01/25 03:29:58;;;;;;;17.10;3.83;;;;;;;;;;5005544;28;20236;-64
2024/01/25 03:32:26;;;;;;;27.53;4.13;;;6.20;99.90;;;;;;5011650;28;20225;-64
2024/01/25 03:34:53;;;;;;;21.03;3.87;;;6.60;99.90;;;;;;5015698;28;20589;-64
2024/01/25 03:37:20;;;;;;;23.93;4.50;;;6.10;99.90;;;;;;4997393;28;20686;-65
2024/01/25 03:39:46;;;;;;;23.00;4.17;;;6.20;99.90;;;;;;4989567;28;20217;-64
2024/01/25 03:42:13;;;;;;;25.80;3.83;;;6.40;99.90;;;;;;5000159;28;20232;-64
2024/01/25 03:44:42;;;;;;;29.87;4.47;;;6.80;99.90;;;;;;5019103;28;20208;-65
2024/01/25 03:47:09;;;;;;;17.47;3.33;;;6.10;99.90;;;;;;5018535;28;20671;-64
2024/01/25 03:49:37;;;;;;;20.53;3.53;;;6.10;99.90;;;;;;5021291;28;20288;-65
2024/01/25 03:52:04;;;;;;;26.87;4.50;;;6.10;99.90;;;;;;5022545;28;20229;-64
2024/01/25 03:54:31;;;;;;;17.47;3.83;;;6.10;99.90;;;;;;5012120;28;20632;-65
2024/01/25 03:56:58;;;;;;;23.57;3.60;;;6.10;99.90;;;;;;4983106;28;20220;-64
2024/01/25 03:59:25;;;;;;;20.63;3.47;;;6.10;99.90;;;;;;5005589;28;20219;-64
2024/01/25 04:01:52;;;;;;;23.77;3.93;;;6.10;99.90;;;;;;5023366;28;20197;-64
2024/01/25 04:04:19;;;;;;;26.33;4.57;;;6.10;99.90;;;;;;5019592;28;20201;-65
2024/01/25 04:06:48;;;;;;;32.57;4.63;;;6.10;99.90;;;;;;5023679;28;20202;-64
2024/01/25 04:09:15;;;;;;;22.57;4.83;;;6.10;99.90;;;;;;5009670;28;20209;-65
2024/01/25 04:11:42;;;;;;;24.07;3.47;;;6.10;99.90;;;;;;4991929;28;20221;-64
2024/01/25 04:14:09;;;;;;;29.53;3.60;;;6.60;99.90;;;;;;5008600;28;20196;-65
2024/01/25 04:16:36;;;;;;;18.30;4.13;;;6.10;99.90;;;;;;5020180;28;20200;-64
2024/01/25 04:19:03;;;;;;;27.50;4.50;;;6.10;99.90;;;;;;5024529;28;20201;-65
2024/01/25 04:21:29;;;;;;;19.27;4.03;;;6.10;99.90;;;;;;5022683;28;20236;-64
2024/01/25 04:23:58;;;;;;;30.77;4.30;;;6.10;99.90;;;;;;5010499;28;20201;-65
2024/01/25 04:26:24;;;;;;;23.67;4.17;;;6.10;99.90;;;;;;5020470;28;20654;-64
2024/01/25 04:28:51;;;;;;;20.80;3.70;;;6.00;99.90;;;;;;4985508;28;20219;-64
2024/01/25 04:31:19;;;;;;;22.03;3.73;;;5.90;99.90;;;;;;4996168;28;20231;-64
2024/01/25 04:33:46;;;;;;;15.00;3.67;;;6.10;99.90;;;;;;5020435;28;20595;-64
2024/01/25 04:36:13;;;;;;;29.23;4.33;;;;;;;;;;5013595;28;20228;-64
2024/01/25 04:38:40;;;;;;;26.57;4.03;;;6.00;99.90;;;;;;5003563;28;20232;-64
2024/01/25 04:41:08;;;;;;;17.17;3.63;;;6.10;99.90;;;;;;5014281;28;20221;-64
2024/01/25 04:43:36;;;;;;;26.70;4.50;;;6.20;99.90;;;;;;4982741;28;20225;-64
2024/01/25 04:46:04;;;;;;;22.07;3.10;;;6.00;99.90;;;;;;5000949;28;20972;-65
2024/01/25 04:48:31;;;;;;;16.87;3.80;;;6.00;99.90;;;;;;5020417;28;20190;-64
2024/01/25 04:50:59;;;;;;;21.80;4.10;;;6.10;99.90;;;;;;5023458;28;20221;-65
2024/01/25 04:53:25;;;;;;;20.37;3.63;;;6.00;99.90;;;;;;5016718;28;20202;-64
2024/01/25 04:55:54;;;;;;;19.10;3.97;;;6.00;99.90;;;;;;4995162;28;20202;-64
2024/01/25 04:58:22;;;;;;;15.50;3.67;;;6.00;99.90;;;;;;4975536;28;20717;-65
2024/01/25 05:00:50;;;;;;;16.57;3.63;;;6.10;99.90;;;;;;5007969;28;20209;-64
2024/01/25 05:03:17;;;;;;;25.90;4.37;;;6.20;99.90;;;;;;4997195;28;21067;-64
2024/01/25 05:05:44;;;;;;;23.60;3.80;;;6.10;99.90;;;;;;5014980;28;20201;-64
2024/01/25 05:08:11;;;;;;;18.90;3.97;;;6.00;99.90;;;;;;5014984;28;20578;-64
2024/01/25 05:10:37;;;;;;;37.80;4.70;;;6.00;99.90;;;;;;5005762;28;20608;-64
2024/01/25 05:13:05;;;;;;;26.47;4.13;;;6.00;99.90;;;;;;4998768;28;20229;-64
2024/01/25 05:15:33;;;;;;;19.90;3.53;;;5.80;99.90;;;;;;4986245;28;20216;-63
2024/01/25 05:18:00;;;;;;;23.27;3.70;;;6.00;99.90;;;;;;5013475;28;20544;-64
2024/01/25 05:20:32;;;;;;;16.80;3.27;;;5.10;99.90;;;;;;5015211;28;21231;-64
2024/01/25 05:22:59;;;;;;;18.73;3.43;;;6.00;99.90;;;;;;5016780;28;20229;-64
2024/01/25 05:25:27;;;;;;;22.17;3.83;;;3.90;99.90;;;;;;5003408;28;20288;-64
2024/01/25 05:27:54;;;;;;;14.23;3.03;;;6.00;99.90;;;;;;5020077;28;20225;-64
2024/01/25 05:30:21;;;;;;;23.30;3.57;;;6.10;99.90;;;;;;4969232;28;20202;-65
2024/01/25 05:32:49;;;;;;;17.77;3.37;;;6.10;99.90;;;;;;5001516;28;20204;-64
2024/01/25 05:35:17;;;;;;;18.17;3.50;;;5.70;99.90;;;;;;5007019;28;20225;-64
2024/01/25 05:37:44;;;;;;;18.03;3.53;;;5.80;99.90;;;;;;5007457;28;20228;-64
2024/01/25 05:40:12;;;;;;;16.27;3.30;;;6.10;99.90;;;;;;5009053;28;20719;-64
2024/01/25 05:42:39;;;;;;;10.20;2.27;;;;;;;;;;5002209;28;20243;-64
2024/01/25 05:45:06;;;;;;;20.67;4.50;;;6.10;99.90;;;;;;4979512;28;20225;-64
2024/01/25 05:47:34;;;;;;;22.83;3.00;;;6.00;99.90;;;;;;4995337;28;21007;-64
2024/01/25 05:50:03;;;;;;;24.27;3.47;;;6.10;99.90;;;;;;5015630;28;20201;-64
2024/01/25 05:52:30;;;;;;;19.90;3.80;;;6.00;99.90;;;;;;5017456;28;20228;-64
2024/01/25 05:54:57;;;;;;;17.43;3.53;;;6.00;99.90;;;;;;5020699;28;20206;-63
2024/01/25 05:57:23;;;;;;;21.93;4.33;;;6.10;99.90;;;;;;4997902;28;20222;-64
2024/01/25 05:59:50;;;;;;;16.23;2.97;;;6.00;99.90;;;;;;5007022;28;20217;-64
2024/01/25 06:02:17;;;;;;;24.17;3.77;;;6.00;99.90;;;;;;4972219;28;20688;-64
2024/01/25 06:04:44;;;;;;;22.03;3.63;;;6.90;99.90;;;;;;4998476;28;20990;-63
2024/01/25 06:07:13;;;;;;;21.10;4.23;;;6.00;99.90;;;;;;5010196;28;20222;-63
2024/01/25 06:09:39;;;;;;;19.40;3.97;;;6.00;99.90;;;;;;5008283;28;20438;-64
2024/01/25 06:12:07;;;;;;;19.67;3.37;;;6.00;99.90;;;;;;5012226;28;20232;-65
2024/01/25 06:14:34;;;;;;;22.80;3.60;;;6.20;99.90;;;;;;5001858;28;20212;-64
2024/01/25 06:17:00;;;;;;;25.57;4.23;;;6.00;99.90;;;;;;4985923;28;20239;-64
2024/01/25 06:19:28;;;;;;;19.67;4.17;;;6.00;99.90;;;;;;5006471;28;20221;-64
2024/01/25 06:21:54;;;;;;;22.00;4.20;;;6.10;99.90;;;;;;5019711;28;20604;-64
2024/01/25 06:24:23;;;;;;;22.57;3.80;;;6.00;99.90;;;;;;5016929;28;21193;-64
2024/01/25 06:26:49;;;;;;;30.20;4.90;;;6.00;99.90;;;;;;5022667;28;20194;-64
2024/01/25 06:29:16;;;;;;;14.53;2.87;;;6.10;99.90;;;;;;5016869;28;20839;-64
2024/01/25 06:31:44;;;;;;;26.87;3.93;;;6.10;99.90;;;;;;4983978;28;20237;-64
2024/01/25 06:34:11;;;;;;;17.43;3.80;;;6.10;99.90;;;;;;5004585;28;20202;-64
2024/01/25 06:36:38;;;;;;;23.13;4.17;;;5.90;99.90;;;;;;5018545;28;20419;-64
2024/01/25 06:39:05;;;;;;;22.10;3.90;;;6.00;99.90;;;;;;5018608;28;20193;-64
2024/01/25 06:41:34;;;;;;;19.97;3.93;;;6.00;99.90;;;;;;5019540;28;20511;-64
2024/01/25 06:44:01;;;;;;;17.80;3.73;;;5.90;99.90;;;;;;5021101;28;20202;-64
2024/01/25 06:46:28;;;;;;;21.47;3.40;;;6.00;99.90;;;;;;4984379;28;20244;-64
2024/01/25 06:48:55;;;;;;;26.63;4.30;;;5.90;99.90;;;;;;5020309;28;21610;-64
2024/01/25 06:51:22;;;;;;;24.07;4.27;;;6.00;99.90;;;;;;5002877;28;20242;-64
2024/01/25 06:53:48;;;;;;;27.37;3.87;;;6.00;99.90;;;;;;5022464;28;20197;-64
2024/01/25 06:56:16;;;;;;;22.60;4.17;;;6.00;99.90;;;;;;5016847;28;20202;-64
2024/01/25 06:58:44;;;;;;;21.87;3.80;;;6.00;99.90;;;;;;5021643;28;20194;-64
2024/01/25 07:01:12;;;;;;;30.47;4.80;;;5.90;99.90;;;;;;5019641;28;20554;-64
2024/01/25 07:03:38;;;;;;;18.57;2.97;;;5.90;99.90;;;;;;4985366;28;20295;-64
2024/01/25 07:06:05;;;;;;;21.17;3.60;;;7.30;99.90;;;;;;5009210;28;20201;-64
2024/01/25 07:08:32;;;;;;;29.87;4.03;;;5.90;99.90;;;;;;5017885;28;20215;-64
2024/01/25 07:11:01;;;;;;;21.37;3.60;;;5.90;99.90;;;;;;5020320;28;20207;-64
2024/01/25 07:13:28;;;;;;;18.73;3.73;;;6.10;99.90;;;;;;5018120;28;20504;-64
2024/01/25 07:15:56;;;;;;;24.73;4.27;;;5.90;99.90;;;;;;5019727;28;20742;-64
2024/01/25 07:18:24;;;;;;;20.00;3.90;;;5.80;99.90;;;;;;4986298;28;20232;-64
2024/01/25 07:20:51;;;;;;;24.43;4.13;;;6.00;99.90;;;;;;5013428;28;20717;-64
2024/01/25 07:23:19;;;;;;;22.40;4.20;;;5.90;99.90;;;;;;5017813;28;20197;-64
2024/01/25 07:25:46;;;;;;;16.00;2.93;;;4.70;99.90;;;;;;5021021;28;20209;-64
2024/01/25 07:28:13;;;;;;;12.20;3.17;;;5.90;99.90;;;;;;5018973;28;20193;-64
2024/01/25 07:30:40;;;;;;;27.57;4.77;;;5.90;99.90;;;;;;5018305;28;20402;-64
2024/01/25 07:33:08;;;;;;;22.50;4.00;;;5.90;99.90;;;;;;5017090;28;20643;-64
2024/01/25 07:35:35;;;;;;;23.67;3.63;;;5.90;99.90;;;;;;4987845;28;20778;-64
2024/01/25 07:38:02;;;;;;;27.47;3.80;;;5.90;99.90;;;;;;5023804;28;20295;-64
2024/01/25 07:40:29;;;;;;;21.63;3.63;;;5.90;99.90;;;;;;5016047;28;21051;-64
2024/01/25 07:42:56;;;;;;;19.63;4.30;;;5.80;99.90;;;;;;5021078;28;20190;-64
2024/01/25 07:45:23;;;;;;;15.97;3.17;;;5.90;99.90;;;;;;5017459;28;20200;-64
2024/01/25 07:47:50;;;;;;;27.93;4.50;;;5.90;99.90;;;;;;5019591;28;20205;-64
2024/01/25 07:50:18;;;;;;;31.43;3.67;;;5.90;99.90;;;;;;4981648;28;20218;-64
2024/01/25 07:52:45;;;;;;;16.70;3.27;;;5.90;99.90;;;;;;5010260;28;20248;-64
2024/01/25 07:55:12;;;;;;;26.90;4.47;;;5.90;99.90;;;;;;5019748;28;20238;-64
2024/01/25 07:57:39;;;;;;;18.43;3.17;;;5.90;99.90;;;;;;5016954;28;20228;-64
2024/01/25 08:00:08;;;;;;;27.20;4.03;;;5.90;99.90;;;;;;5019858;28;20558;-64
2024/01/25 08:02:35;;;;;;;15.37;2.90;;;5.90;99.90;;;;;;5011981;28;20757;-64
2024/01/25 08:05:02;;;;;;;15.23;3.03;;;5.90;99.90;;;;;;4988451;28;20220;-64
2024/01/25 08:07:31;;;;;;;23.80;4.13;;;6.00;99.90;;;;;;5002763;28;20883;-64
2024/01/25 08:09:58;;;;;;;25.77;4.03;;;6.00;99.90;;;;;;5023697;28;20395;-64
2024/01/25 08:12:25;;;;;;;23.40;4.07;;;6.00;99.90;;;;;;5017000;28;20239;-64
2024/01/25 08:14:51;;;;;;;31.30;4.43;;;6.40;99.90;;;;;;5021263;28;20665;-64
2024/01/25 08:17:18;;;;;;;28.60;4.03;;;6.10;99.90;;;;;;5008015;28;20210;-64
2024/01/25 08:19:46;;;;;;;33.33;4.10;;;6.10;99.90;;;;;;5022656;28;20194;-64
2024/01/25 08:22:13;;;;;;;22.33;4.00;;;6.10;99.90;;;;;;4978433;28;20617;-64
2024/01/25 08:24:42;;;;;;;19.00;3.70;;;6.10;99.90;;;;;;5013098;28;20439;-64
2024/01/25 08:27:08;;;;;;;13.53;3.03;;;6.10;99.90;;;;;;5018728;28;20205;-64
2024/01/25 08:29:36;;;;;;;21.77;3.90;;;6.20;99.90;;;;;;5015585;28;20198;-64
2024/01/25 08:32:04;;;;;;;26.50;4.47;;;6.20;99.90;;;;;;5018436;28;20236;-64
2024/01/25 08:34:31;;;;;;;28.27;4.43;;;6.20;99.90;;;;;;5017822;28;20197;-64
2024/01/25 08:36:57;;;;;;;24.60;4.77;;;6.20;99.90;;;;;;4985383;28;20220;-64
2024/01/25 08:39:24;;;;;;;27.73;4.17;;;6.10;99.90;;;;;;5007149;28;20209;-64
2024/01/25 08:41:53;;;;;;;22.33;3.57;;;6.20;99.90;;;;;;5016039;28;20260;-64
2024/01/25 08:44:20;;;;;;;26.70;4.07;;;6.40;99.90;;;;;;5007281;28;20691;-64
2024/01/25 08:46:47;;;;;;;26.40;3.83;;;6.20;99.90;;;;;;5020433;28;20212;-64
2024/01/25 08:49:14;;;;;;;22.43;3.73;;;6.20;99.90;;;;;;5016500;28;20217;-65
2024/01/25 08:51:40;;;;;;;29.30;4.23;;;6.10;99.90;;;;;;4987960;28;20686;-64
2024/01/25 08:54:08;;;;;;;20.53;3.73;;;6.10;99.90;;;;;;5013717;28;20198;-64
2024/01/25 08:56:35;;;;;;;21.40;3.63;;;6.10;99.90;;;;;;5019571;28;20189;-64
2024/01/25 08:59:03;;;;;;;21.53;3.77;;;6.20;99.90;;;;;;5028190;28;20577;-64
2024/01/25 09:01:30;;;;;;;27.93;5.37;;;6.20;99.90;;;;;;5016131;28;20333;-64
2024/01/25 09:04:02;;;;;;;21.57;3.43;;;6.30;99.90;;;;;;5019776;28;20929;-64
2024/01/25 09:06:29;;;;;;;23.07;3.83;;;6.30;99.90;;;;;;4985709;28;23025;-64
2024/01/25 09:08:56;;;;;;;24.67;4.30;;;6.30;99.90;;;;;;5015130;28;20312;-64
2024/01/25 09:11:23;;;;;;;24.40;4.10;;;6.40;99.90;;;;;;5017961;28;20292;-64
2024/01/25 09:13:49;;;;;;;28.57;4.83;;;6.40;99.90;;;;;;5027394;28;20205;-64
2024/01/25 09:16:18;;;;;;;15.73;3.70;;;6.40;99.90;;;;;;5022219;28;20220;-64
2024/01/25 09:18:45;;;;;;;30.67;5.03;;;6.40;99.90;;;;;;5025625;28;20189;-65
2024/01/25 09:21:12;;;;;;;17.60;3.33;;;6.40;99.90;;;;;;5022311;28;20229;-64
2024/01/25 09:23:39;;;;;;;24.50;3.57;;;6.40;99.90;;;;;;4979345;28;21468;-64
2024/01/25 09:26:05;;;;;;;17.97;3.50;;;6.50;99.90;;;;;;5025604;28;20218;-64
2024/01/25 09:28:32;;;;;;;18.07;4.27;;;6.50;99.90;;;;;;5021824;28;20202;-64
2024/01/25 09:30:59;;;;;;;18.80;3.70;;;6.40;99.90;;;;;;5024229;28;20620;-64
2024/01/25 09:33:27;;;;;;;21.80;4.13;;;6.40;99.90;;;;;;5022757;28;20233;-64
2024/01/25 09:35:54;;;;;;;17.63;3.73;;;6.60;99.90;;;;;;5021881;28;20197;-64
2024/01/25 09:38:21;;;;;;;17.87;3.23;;;6.60;99.90;;;;;;4985772;28;21054;-64
2024/01/25 09:40:48;;;;;;;25.00;4.23;;;6.60;99.90;;;;;;5013407;28;20201;-64
2024/01/25 09:43:15;;;;;;;26.17;4.03;;;6.60;99.90;;;;;;5021402;28;20561;-64
2024/01/25 09:45:43;;;;;;;19.10;4.00;;;6.60;99.90;;;;;;5022438;28;20742;-64
2024/01/25 09:48:10;;;;;;;18.80;3.87;;;6.60;99.90;;;;;;5020591;28;20193;-64
2024/01/25 09:50:38;;;;;;;29.20;4.40;;;6.70;99.90;;;;;;5020736;28;20552;-64
2024/01/25 09:53:07;;;;;;;12.10;2.77;;;6.70;99.90;;;;;;4987522;28;20722;-64
2024/01/25 09:55:39;;;;;;;19.17;3.83;;;6.90;99.90;;;;;;5006868;28;21385;-64
2024/01/25 09:58:07;;;;;;;25.63;4.30;;;6.70;99.90;;;;;;5020238;28;20205;-64
2024/01/25 10:00:34;;;;;;;18.13;3.60;;;6.70;99.90;;;;;;5017594;28;21002;-64
2024/01/25 10:03:01;;;;;;;19.87;4.10;;;6.80;99.90;;;;;;5016217;28;20285;-64
2024/01/25 10:05:28;;;;;;;26.90;4.03;;;6.80;99.90;;;;;;5020117;28;20275;-64
2024/01/25 10:08:01;;;;;;;24.37;4.50;;;7.50;99.90;;;;;;5022751;28;20202;-64
2024/01/25 10:10:32;;;;;;;18.93;3.73;;;6.80;99.90;;;;;;4971880;28;20336;-64
2024/01/25 10:13:00;;;;;;;23.70;4.17;;;6.70;99.90;;;;;;5023188;28;20225;-64
2024/01/25 10:15:27;;;;;;;26.73;4.10;;;6.80;99.90;;;;;;5015509;28;20223;-64
2024/01/25 10:17:54;;;;;;;22.73;4.00;;;6.80;99.90;;;;;;5020641;28;20849;-64
2024/01/25 10:20:24;;;;;;;24.30;3.90;;;6.80;99.90;;;;;;5017611;28;20758;-64
2024/01/25 10:22:52;;;;;;;26.17;4.27;;;6.90;99.90;;;;;;5024508;28;20248;-64
2024/01/25 10:25:20;;;;;;;15.37;3.93;;;6.90;99.90;;;;;;4985934;28;20236;-64
2024/01/25 10:27:48;;;;;;;22.57;3.57;;;6.80;99.90;;;;;;5009716;28;20209;-64
2024/01/25 10:30:15;;;;;;;24.00;4.70;;;6.90;99.90;;;;;;5019102;28;20198;-64
2024/01/25 10:32:42;;;;;;;22.13;4.40;;;6.90;99.90;;;;;;5019096;28;20571;-64
2024/01/25 10:35:11;;;;;;;26.67;4.43;;;6.50;99.90;;;;;;5016246;28;20709;-64
2024/01/25 10:37:40;;;;;;;22.17;4.27;;;7.00;99.90;;;;;;5018709;28;20198;-64
2024/01/25 10:40:10;;;;;;;17.93;4.40;;;6.90;99.90;;;;;;4987925;28;20304;-64
2024/01/25 10:42:39;;;;;;;18.57;3.60;;;7.00;99.90;;;;;;5008072;28;20886;-64
2024/01/25 10:45:07;;;;;;;18.30;3.53;;;6.90;99.90;;;;;;5023199;28;20496;-64
2024/01/25 10:47:35;;;;;;;18.93;3.63;;;7.00;99.90;;;;;;5017857;28;20194;-64
2024/01/25 10:50:03;;;;;;;20.63;3.87;;;7.00;99.90;;;;;;5020054;28;20311;-64
2024/01/25 10:52:31;;;;;;;12.57;3.07;;;7.00;99.90;;;;;;5012776;28;20226;-64
2024/01/25 10:54:59;;;;;;;19.07;4.33;;;7.00;99.90;;;;;;4990132;28;20217;-64
2024/01/25 10:57:26;;;;;;;21.90;3.43;;;6.90;99.90;;;;;;5007684;28;20202;-64
2024/01/25 10:59:55;;;;;;;16.80;3.87;;;6.30;99.90;;;;;;5020201;28;20218;-64
2024/01/25 11:02:22;;;;;;;22.13;3.77;;;7.00;99.90;;;;;;5001790;28;20198;-65
2024/01/25 11:04:54;;;;;;;20.07;4.10;;;7.10;99.90;;;;;;5015070;28;20197;-64
2024/01/25 11:07:22;;;;;;;27.37;4.10;;;7.10;99.90;;;;;;5017293;28;20692;-64
2024/01/25 11:09:52;;;;;;;29.77;5.13;;;7.10;99.90;;;;;;5022459;28;20200;-64
2024/01/25 11:12:20;;;;;;;25.57;3.87;;;7.10;99.90;;;;;;4982449;28;20214;-64
2024/01/25 11:14:56;;;;;;;18.43;3.90;;;7.10;99.90;;;;;;5011287;28;20567;-64
2024/01/25 11:17:24;;;;;;;37.37;4.40;;;7.10;99.90;;;;;;5017853;28;20292;-64
2024/01/25 11:19:51;;;;;;;19.77;3.70;;;7.20;99.90;;;;;;5023111;28;20209;-64
2024/01/25 11:22:19;;;;;;;22.03;4.20;;;7.20;99.90;;;;;;5017776;28;20233;-64
2024/01/25 11:24:48;;;;;;;17.57;3.53;;;7.20;99.90;;;;;;5019869;28;20225;-64
2024/01/25 11:27:15;;;;;;;21.80;4.50;;;7.10;99.90;;;;;;4988755;28;20217;-64
2024/01/25 11:29:42;;;;;;;15.67;3.87;;;7.30;99.90;;;;;;5007103;28;20456;-64
2024/01/25 11:32:11;;;;;;;20.37;4.03;;;7.30;99.90;;;;;;5021033;28;20280;-64
2024/01/25 11:34:38;;;;;;;20.77;3.20;;;7.40;99.90;;;;;;5016660;28;20391;-64
2024/01/25 11:37:05;;;;;;;10.57;3.27;;;7.40;99.90;;;;;;5020547;28;20197;-64
2024/01/25 11:39:33;;;;;;;25.97;4.30;;;7.70;99.90;;;;;;5019923;28;20768;-64
2024/01/25 11:42:00;;;;;;;18.50;3.70;;;7.40;99.90;;;;;;4985604;28;20209;-65
2024/01/25 11:44:27;;;;;;;17.03;3.53;;;7.50;99.90;;;;;;5004183;28;20423;-64
2024/01/25 11:46:55;;;;;;;21.47;4.50;;;7.50;99.90;;;;;;5021059;28;20198;-64
2024/01/25 11:49:25;;;;;;;13.33;3.37;;;7.70;99.90;;;;;;5018119;28;20394;-64
2024/01/25 11:51:52;;;;;;;24.50;4.37;;;7.70;99.90;;;;;;5017901;28;20204;-64
2024/01/25 11:54:19;;;;;;;17.37;3.40;;;7.60;99.90;;;;;;5013327;28;20785;-65
2024/01/25 11:56:47;;;;;;;17.83;3.47;;;7.70;99.90;;;;;;4997699;28;20729;-64
2024/01/25 11:59:14;;;;;;;26.60;4.37;;;7.60;99.90;;;;;;4975459;28;20961;-65
2024/01/25 12:01:41;;;;;;;20.03;3.60;;;6.10;99.90;;;;;;4987562;28;20236;-64
2024/01/25 12:04:08;;;;;;;26.30;3.67;;;7.50;99.90;;;;;;5012109;28;20205;-65
2024/01/25 12:06:37;;;;;;;19.10;3.40;;;7.50;99.90;;;;;;5012745;28;20251;-64
2024/01/25 12:09:09;;;;;;;24.03;3.63;;;7.50;99.90;;;;;;5016169;28;20336;-64
2024/01/25 12:11:36;;;;;;;18.00;3.67;;;7.40;99.90;;;;;;5014486;28;20198;-64
2024/01/25 12:14:02;;;;;;;20.67;5.03;;;7.50;99.90;;;;;;4979880;28;20705;-64
2024/01/25 12:16:30;;;;;;;23.10;3.77;;;7.00;99.90;;;;;;4994007;28;20925;-64
2024/01/25 12:18:57;;;;;;;17.50;3.63;;;7.50;99.90;;;;;;5003166;28;20201;-64
2024/01/25 12:21:24;;;;;;;11.80;3.10;;;10.30;99.90;;;;;;5015827;28;20325;-64
2024/01/25 12:23:52;;;;;;;22.10;4.27;;;7.50;99.90;;;;;;5014777;28;20311;-65
2024/01/25 12:26:20;;;;;;;23.63;4.17;;;7.50;99.90;;;;;;5010110;28;20200;-64
2024/01/25 12:28:49;;;;;;;15.30;3.80;;;7.50;99.90;;;;;;4981779;28;20734;-64
2024/01/25 12:31:16;;;;;;;20.83;4.03;;;7.50;99.90;;;;;;5012623;28;20292;-64
2024/01/25 12:33:43;;;;;;;12.10;3.23;;;7.50;99.90;;;;;;4995183;28;20427;-64
2024/01/25 12:36:10;;;;;;;13.80;3.10;;;7.60;99.90;;;;;;5011324;28;20643;-64
2024/01/25 12:38:37;;;;;;;17.80;3.33;;;7.60;99.90;;;;;;5009113;28;20228;-64
2024/01/25 12:41:06;;;;;;;11.80;3.63;;;7.60;99.90;;;;;;5011805;28;20201;-64
2024/01/25 12:43:33;;;;;;;26.50;3.80;;;7.70;99.90;;;;;;5006661;28;20844;-64
2024/01/25 12:46:00;;;;;;;17.13;3.93;;;7.60;99.90;;;;;;4979726;28;20202;-64
2024/01/25 12:48:27;;;;;;;12.77;2.90;;;7.60;99.90;;;;;;5003936;28;20594;-64